首页
METAR-TAF:

METAR-TAF

机场 :

雪城汉考克国际机场

锡拉丘兹, 紐約州, 美国

纬度: 43-06-33N, 经度: 076-06-12W, 海拔: 128米

当前天气观测

该预报发布于25分钟前的08:54 UTC
风速5节,风向西转西南
温度 8°C
湿度 76%
气压 1023 hPa
能見度: 16.1公里
散云层高于6000英尺
多云层高于8000英尺

METAR: KSYR 010854Z 25005KT 10SM SCT060 BKN080 08/04 A3021 RMK AO2 SLP229 T00830039 55000

时间: 05:19 (09:19 UTC)

预报

该预报发布于3小时和52分钟前的05:27 UTC
预报有效从01日的 06点(UTC)到 02日的 06点(UTC)
风速7节,风向西
能見度: 10公里
多云层高于4500英尺
从 01日的 1700点(UTC)
风速14节,风向西,有时为21节阵风
能見度: 10公里
少量云层高于5000英尺
多云层高于7000英尺
从 02日的 0100点(UTC)
风速7节,风向西
能見度: 10公里
多云层高于10000英尺

TAF: KSYR 010527Z 0106/0206 28007KT P6SM BKN045 FM011700 28014G21KT P6SM FEW050 BKN070 FM020100 27007KT P6SM BKN100

超过4000个机场的气象观测和天气预报(METAR&TAF报告)。

可查询的气象台以黄色和红色小点在地图上表示。

将鼠标移到小点上方,可查看气象台名称。

然后点击查看天气观测和预报。

如需切换地图:点击带黑十字的绿色按钮放大地图;点击带横线的绿色按钮缩小地图;或者点击绿色箭头查看邻近地区的地图。


METAR-TAF: